weather.gov     
National Weather Service

Terminal Aerodrome Forecast
NWS Homepage
This page is being discontinued on March 12, 2014.
The same data is available at this site. Please update your bookmarks.
Thank you, and we apologize for the inconvenience.
Please send an email to SR-SRH.Webmaster@noaa.gov with any concerns.


Current Version
Previous Version:    01  02  03  04  05  06  07  08  09  10  11  12  13  14  15  16  17  18  19  20  21  22  23  24  25  26  27  28  29  30  
   31  32  33  34  35  36  37  38  39  40  41  42  43  44  45  46  47  48  49  50  51  52  53  54  55  
[Printable]
888
FTUS43 KMPX 260520
TAFMSP
TAF
KMSP 260520Z 2606/2712 19006KT P6SM OVC120
      TEMPO 2606/2608 BKN020 OVC120
     FM260800 18009KT 4SM -SN OVC020
     FM261100 19009KT P6SM OVC020
     FM261400 25008KT P6SM BKN025
      TEMPO 2614/2617 SCT025 OVC100
     FM262100 30010G19KT P6SM OVC025
     FM270100 32009KT P6SM OVC020=




888
FTUS43 KMPX 260520
TAFMSP
TAF
KMSP 260520Z 2606/2712 19006KT P6SM OVC120
      TEMPO 2606/2608 BKN020 OVC120
     FM260800 18009KT 4SM -SN OVC020
     FM261100 19009KT P6SM OVC020
     FM261400 25008KT P6SM BKN025
      TEMPO 2614/2617 SCT025 OVC100
     FM262100 30010G19KT P6SM OVC025
     FM270100 32009KT P6SM OVC020=


U.S. Dept. of Commerce
NOAA National Weather Service
1325 East West Highway
Silver Spring, MD 20910
E-mail: w-nws.webmaster@noaa.gov
Page last modified: May 16, 2007
NATIONAL WEATHER SERVICE: for Safety, for Work, for Fun - FOR LIFE